sensor_id;sensor_type;location;lat;lon;timestamp;pressure;altitude;pressure_sealevel;temperature;humidity
51313;BME280;37397;53.226;10.400;2024-03-23T00:54:00;100365.97;;;10.51;69.30
51313;BME280;37397;53.226;10.400;2024-03-23T00:56:26;100365.97;;;10.51;69.23
51313;BME280;37397;53.226;10.400;2024-03-23T00:58:51;100364.38;;;10.50;69.30
51313;BME280;37397;53.226;10.400;2024-03-23T01:01:17;100366.94;;;10.48;69.40
51313;BME280;37397;53.226;10.400;2024-03-23T01:03:42;100362.78;;;10.49;69.20
51313;BME280;37397;53.226;10.400;2024-03-23T01:06:08;100359.66;;;10.47;69.26
51313;BME280;37397;53.226;10.400;2024-03-23T01:08:34;100348.25;;;10.47;69.32
51313;BME280;37397;53.226;10.400;2024-03-23T01:11:00;100355.22;;;10.46;69.21
51313;BME280;37397;53.226;10.400;2024-03-23T01:13:27;100346.84;;;10.43;69.33
51313;BME280;37397;53.226;10.400;2024-03-23T01:15:54;100356.50;;;10.45;69.31
51313;BME280;37397;53.226;10.400;2024-03-23T01:18:21;100348.44;;;10.44;69.09
51313;BME280;37397;53.226;10.400;2024-03-23T01:20:47;100339.00;;;10.37;69.17
51313;BME280;37397;53.226;10.400;2024-03-23T01:23:13;100350.97;;;10.42;69.33
51313;BME280;37397;53.226;10.400;2024-03-23T01:25:39;100344.50;;;10.41;69.25
51313;BME280;37397;53.226;10.400;2024-03-23T01:28:05;100340.09;;;10.40;69.39
51313;BME280;37397;53.226;10.400;2024-03-23T01:30:32;100337.25;;;10.40;69.32
51313;BME280;37397;53.226;10.400;2024-03-23T01:32:58;100332.53;;;10.37;69.16
51313;BME280;37397;53.226;10.400;2024-03-23T01:35:24;100337.41;;;10.36;69.23
51313;BME280;37397;53.226;10.400;2024-03-23T01:37:49;100330.66;;;10.34;69.22
51313;BME280;37397;53.226;10.400;2024-03-23T01:40:16;100327.78;;;10.34;69.34
51313;BME280;37397;53.226;10.400;2024-03-23T01:42:42;100312.13;;;10.29;69.36
51313;BME280;37397;53.226;10.400;2024-03-23T01:45:08;100306.91;;;10.28;69.43
51313;BME280;37397;53.226;10.400;2024-03-23T01:47:35;100318.13;;;10.31;69.08
51313;BME280;37397;53.226;10.400;2024-03-23T01:50:01;100318.91;;;10.32;69.24
51313;BME280;37397;53.226;10.400;2024-03-23T01:52:27;100299.41;;;10.30;69.27
51313;BME280;37397;53.226;10.400;2024-03-23T01:54:53;100310.06;;;10.30;69.20
51313;BME280;37397;53.226;10.400;2024-03-23T01:57:19;100301.22;;;10.28;69.22
51313;BME280;37397;53.226;10.400;2024-03-23T01:59:47;100300.44;;;10.27;69.25
51313;BME280;37397;53.226;10.400;2024-03-23T02:02:19;100296.50;;;10.25;69.25
51313;BME280;37397;53.226;10.400;2024-03-23T02:04:45;100302.19;;;10.25;69.26
51313;BME280;37397;53.226;10.400;2024-03-23T02:07:11;100296.50;;;10.25;69.28
51313;BME280;37397;53.226;10.400;2024-03-23T02:09:36;100294.13;;;10.23;69.27
51313;BME280;37397;53.226;10.400;2024-03-23T02:12:03;100284.00;;;10.22;69.20
51313;BME280;37397;53.226;10.400;2024-03-23T02:14:29;100275.44;;;10.22;69.19
51313;BME280;37397;53.226;10.400;2024-03-23T02:16:54;100263.75;;;10.20;69.24
51313;BME280;37397;53.226;10.400;2024-03-23T02:19:20;100265.81;;;10.19;69.14
51313;BME280;37397;53.226;10.400;2024-03-23T02:21:45;100270.72;;;10.19;69.21
51313;BME280;37397;53.226;10.400;2024-03-23T02:24:12;100276.91;;;10.17;69.22
51313;BME280;37397;53.226;10.400;2024-03-23T02:26:38;100269.66;;;10.16;69.26
51313;BME280;37397;53.226;10.400;2024-03-23T02:29:03;100265.22;;;10.15;69.32
51313;BME280;37397;53.226;10.400;2024-03-23T02:31:29;100256.09;;;10.11;69.21
51313;BME280;37397;53.226;10.400;2024-03-23T02:33:54;100258.75;;;10.15;69.29
51313;BME280;37397;53.226;10.400;2024-03-23T02:36:20;100256.09;;;10.11;69.14
51313;BME280;37397;53.226;10.400;2024-03-23T02:38:46;100253.25;;;10.11;69.21
51313;BME280;37397;53.226;10.400;2024-03-23T02:41:12;100260.22;;;10.10;69.22
51313;BME280;37397;53.226;10.400;2024-03-23T02:43:39;100264.34;;;10.09;69.22
51313;BME280;37397;53.226;10.400;2024-03-23T02:46:04;100235.94;;;10.00;69.24
51313;BME280;37397;53.226;10.400;2024-03-23T02:48:30;100228.66;;;9.99;69.22
51313;BME280;37397;53.226;10.400;2024-03-23T02:50:56;100243.81;;;10.05;69.20
51313;BME280;37397;53.226;10.400;2024-03-23T02:53:21;100240.66;;;10.03;69.23
51313;BME280;37397;53.226;10.400;2024-03-23T02:55:47;100242.22;;;10.04;69.09
51313;BME280;37397;53.226;10.400;2024-03-23T02:58:14;100239.09;;;10.02;69.02
51313;BME280;37397;53.226;10.400;2024-03-23T03:00:39;100234.66;;;10.01;69.11
51313;BME280;37397;53.226;10.400;2024-03-23T03:03:06;100238.81;;;10.00;69.16
51313;BME280;37397;53.226;10.400;2024-03-23T03:05:32;100245.78;;;9.99;69.12
51313;BME280;37397;53.226;10.400;2024-03-23T03:07:58;100236.94;;;9.97;69.16
51313;BME280;37397;53.226;10.400;2024-03-23T03:10:24;100230.41;;;9.96;69.06
51313;BME280;37397;53.226;10.400;2024-03-23T03:12:49;100212.97;;;9.89;69.02
51313;BME280;37397;53.226;10.400;2024-03-23T03:15:15;100218.44;;;9.92;69.19
51313;BME280;37397;53.226;10.400;2024-03-23T03:17:41;100224.16;;;9.92;69.10
51313;BME280;37397;53.226;10.400;2024-03-23T03:20:08;100220.50;;;9.92;69.23
51313;BME280;37397;53.226;10.400;2024-03-23T03:22:39;100218.94;;;9.91;69.16
51313;BME280;37397;53.226;10.400;2024-03-23T03:25:05;100218.66;;;9.89;69.21
51313;BME280;37397;53.226;10.400;2024-03-23T03:27:32;100208.53;;;9.88;69.16
51313;BME280;37397;53.226;10.400;2024-03-23T03:29:58;100203.81;;;9.84;69.21
51313;BME280;37397;53.226;10.400;2024-03-23T03:32:24;100207.44;;;9.85;69.16
51313;BME280;37397;53.226;10.400;2024-03-23T03:34:50;100196.25;;;9.81;69.16
51313;BME280;37397;53.226;10.400;2024-03-23T03:37:16;100198.59;;;9.83;69.19
51313;BME280;37397;53.226;10.400;2024-03-23T03:39:41;100196.25;;;9.81;69.21
51313;BME280;37397;53.226;10.400;2024-03-23T03:42:08;100194.66;;;9.80;69.05
51313;BME280;37397;53.226;10.400;2024-03-23T03:44:34;100182.88;;;9.73;69.21
51313;BME280;37397;53.226;10.400;2024-03-23T03:46:59;100192.00;;;9.77;69.17
51313;BME280;37397;53.226;10.400;2024-03-23T03:49:25;100180.13;;;9.78;69.15
51313;BME280;37397;53.226;10.400;2024-03-23T03:51:50;100188.38;;;9.76;69.15
51313;BME280;37397;53.226;10.400;2024-03-23T03:54:16;100181.09;;;9.75;69.22
51313;BME280;37397;53.226;10.400;2024-03-23T03:56:41;100185.25;;;9.74;69.21
51313;BME280;37397;53.226;10.400;2024-03-23T03:59:07;100179.72;;;9.71;69.33
51313;BME280;37397;53.226;10.400;2024-03-23T04:01:33;100166.97;;;9.66;69.21
51313;BME280;37397;53.226;10.400;2024-03-23T04:03:58;100181.31;;;9.72;69.19
51313;BME280;37397;53.226;10.400;2024-03-23T04:06:24;100174.22;;;9.67;69.34
51313;BME280;37397;53.226;10.400;2024-03-23T04:08:49;100173.25;;;9.70;69.25
51313;BME280;37397;53.226;10.400;2024-03-23T04:11:15;100170.13;;;9.68;69.31
51313;BME280;37397;53.226;10.400;2024-03-23T04:13:41;100167.97;;;9.63;69.17
51313;BME280;37397;53.226;10.400;2024-03-23T04:16:07;100171.88;;;9.65;69.26
51313;BME280;37397;53.226;10.400;2024-03-23T04:18:34;100172.69;;;9.66;69.25
51313;BME280;37397;53.226;10.400;2024-03-23T04:21:00;100162.25;;;9.63;69.28
51313;BME280;37397;53.226;10.400;2024-03-23T04:23:26;100156.56;;;9.63;69.17
51313;BME280;37397;53.226;10.400;2024-03-23T04:25:51;100157.06;;;9.61;69.39
51313;BME280;37397;53.226;10.400;2024-03-23T04:28:19;100159.91;;;9.61;69.36
51313;BME280;37397;53.226;10.400;2024-03-23T04:30:44;100164.03;;;9.60;69.39
51313;BME280;37397;53.226;10.400;2024-03-23T04:33:10;100153.13;;;9.59;69.38
51313;BME280;37397;53.226;10.400;2024-03-23T04:35:35;100161.66;;;9.59;69.28
51313;BME280;37397;53.226;10.400;2024-03-23T04:38:02;100147.91;;;9.57;69.28
51313;BME280;37397;53.226;10.400;2024-03-23T04:40:27;100148.41;;;9.56;69.43
51313;BME280;37397;53.226;10.400;2024-03-23T04:42:53;100147.63;;;9.55;69.31
51313;BME280;37397;53.226;10.400;2024-03-23T04:45:18;100152.53;;;9.55;69.36
51313;BME280;37397;53.226;10.400;2024-03-23T04:47:44;100141.03;;;9.49;69.35
51313;BME280;37397;53.226;10.400;2024-03-23T04:50:10;100139.56;;;9.54;69.48
51313;BME280;37397;53.226;10.400;2024-03-23T04:52:38;100150.97;;;9.54;69.22
51313;BME280;37397;53.226;10.400;2024-03-23T04:55:05;100157.91;;;9.53;69.33
51313;BME280;37397;53.226;10.400;2024-03-23T04:57:31;100149.88;;;9.51;69.30
51313;BME280;37397;53.226;10.400;2024-03-23T04:59:56;100143.41;;;9.51;69.40
51313;BME280;37397;53.226;10.400;2024-03-23T05:02:22;100133.28;;;9.49;69.31
51313;BME280;37397;53.226;10.400;2024-03-23T05:04:48;100131.72;;;9.48;69.29
51313;BME280;37397;53.226;10.400;2024-03-23T05:07:14;100132.97;;;9.47;69.51
51313;BME280;37397;53.226;10.400;2024-03-23T05:09:39;100142.31;;;9.48;69.39
51313;BME280;37397;53.226;10.400;2024-03-23T05:12:05;100144.38;;;9.47;69.59
51313;BME280;37397;53.226;10.400;2024-03-23T05:14:31;100145.34;;;9.44;69.43
51313;BME280;37397;53.226;10.400;2024-03-23T05:16:58;100152.63;;;9.45;69.38
51313;BME280;37397;53.226;10.400;2024-03-23T05:19:23;100135.22;;;9.43;69.51
51313;BME280;37397;53.226;10.400;2024-03-23T05:21:49;100126.09;;;9.39;69.46
51313;BME280;37397;53.226;10.400;2024-03-23T05:24:14;100146.63;;;9.43;69.48
51313;BME280;37397;53.226;10.400;2024-03-23T05:26:40;100133.66;;;9.42;69.48
51313;BME280;37397;53.226;10.400;2024-03-23T05:29:06;100131.19;;;9.35;69.34
51313;BME280;37397;53.226;10.400;2024-03-23T05:31:36;100139.09;;;9.40;69.30
51313;BME280;37397;53.226;10.400;2024-03-23T05:34:01;100125.22;;;9.33;69.34
51313;BME280;37397;53.226;10.400;2024-03-23T05:36:27;100131.50;;;9.37;69.34
51313;BME280;37397;53.226;10.400;2024-03-23T05:38:53;100134.38;;;9.37;69.35
51313;BME280;37397;53.226;10.400;2024-03-23T05:41:18;100131.50;;;9.37;69.41
51313;BME280;37397;53.226;10.400;2024-03-23T05:43:44;100114.31;;;9.31;69.43
51313;BME280;37397;53.226;10.400;2024-03-23T05:46:09;100116.97;;;9.35;69.51
51313;BME280;37397;53.226;10.400;2024-03-23T05:48:35;100114.13;;;9.35;69.35
51313;BME280;37397;53.226;10.400;2024-03-23T05:51:01;100115.09;;;9.32;69.43
51313;BME280;37397;53.226;10.400;2024-03-23T05:53:27;100109.41;;;9.32;69.46
51313;BME280;37397;53.226;10.400;2024-03-23T05:56:02;100112.75;;;9.30;69.27
51313;BME280;37397;53.226;10.400;2024-03-23T05:58:33;100105.00;;;9.31;69.49
51313;BME280;37397;53.226;10.400;2024-03-23T06:01:00;100117.94;;;9.32;69.52
51313;BME280;37397;53.226;10.400;2024-03-23T06:03:30;100113.25;;;9.29;69.51
51313;BME280;37397;53.226;10.400;2024-03-23T06:05:56;100108.81;;;9.28;69.51
51313;BME280;37397;53.226;10.400;2024-03-23T06:08:22;100099.31;;;9.31;69.60
51313;BME280;37397;53.226;10.400;2024-03-23T06:10:48;100102.63;;;9.29;69.73
51313;BME280;37397;53.226;10.400;2024-03-23T06:13:13;100093.31;;;9.29;69.47
51313;BME280;37397;53.226;10.400;2024-03-23T06:15:39;100089.66;;;9.28;69.60
51313;BME280;37397;53.226;10.400;2024-03-23T06:18:05;100081.13;;;9.28;69.52
51313;BME280;37397;53.226;10.400;2024-03-23T06:20:33;100094.88;;;9.30;69.60
51313;BME280;37397;53.226;10.400;2024-03-23T06:23:00;100087.31;;;9.27;69.53
51313;BME280;37397;53.226;10.400;2024-03-23T06:25:26;100089.38;;;9.26;69.43
51313;BME280;37397;53.226;10.400;2024-03-23T06:27:52;100090.16;;;9.27;69.36
51313;BME280;37397;53.226;10.400;2024-03-23T06:30:18;100084.47;;;9.27;69.57
51313;BME280;37397;53.226;10.400;2024-03-23T06:32:43;100088.28;;;9.24;69.52
51313;BME280;37397;53.226;10.400;2024-03-23T06:35:09;100088.59;;;9.26;69.60
51313;BME280;37397;53.226;10.400;2024-03-23T06:37:37;100092.22;;;9.26;69.62
51313;BME280;37397;53.226;10.400;2024-03-23T06:40:05;100085.75;;;9.26;69.66
51313;BME280;37397;53.226;10.400;2024-03-23T06:42:34;100088.59;;;9.26;69.67
51313;BME280;37397;53.226;10.400;2024-03-23T06:44:59;100084.19;;;9.25;69.61
51313;BME280;37397;53.226;10.400;2024-03-23T06:47:25;100092.72;;;9.25;69.63
51313;BME280;37397;53.226;10.400;2024-03-23T06:49:51;100084.59;;;9.18;69.49
51313;BME280;37397;53.226;10.400;2024-03-23T06:52:16;100098.41;;;9.25;69.94
51313;BME280;37397;53.226;10.400;2024-03-23T06:54:43;100095.66;;;9.16;69.74
51313;BME280;37397;53.226;10.400;2024-03-23T06:57:11;100098.41;;;9.25;69.67
51313;BME280;37397;53.226;10.400;2024-03-23T06:59:37;100091.13;;;9.24;69.66
51313;BME280;37397;53.226;10.400;2024-03-23T07:02:05;100086.13;;;9.19;69.65
51313;BME280;37397;53.226;10.400;2024-03-23T07:04:31;100092.72;;;9.25;69.66
51313;BME280;37397;53.226;10.400;2024-03-23T07:06:56;100094.31;;;9.26;69.79
51313;BME280;37397;53.226;10.400;2024-03-23T07:09:22;100097.16;;;9.26;69.77
51313;BME280;37397;53.226;10.400;2024-03-23T07:11:53;100082.91;;;9.26;69.76
51313;BME280;37397;53.226;10.400;2024-03-23T07:14:20;100077.22;;;9.26;69.99
51313;BME280;37397;53.226;10.400;2024-03-23T07:16:45;100080.84;;;9.26;70.01
51313;BME280;37397;53.226;10.400;2024-03-23T07:19:11;100079.56;;;9.27;70.01
51313;BME280;37397;53.226;10.400;2024-03-23T07:21:36;100057.38;;;9.17;70.03
51313;BME280;37397;53.226;10.400;2024-03-23T07:24:02;100063.28;;;9.28;69.98
51313;BME280;37397;53.226;10.400;2024-03-23T07:26:28;100071.81;;;9.28;69.90
51313;BME280;37397;53.226;10.400;2024-03-23T07:28:53;100072.09;;;9.30;69.86
51313;BME280;37397;53.226;10.400;2024-03-23T07:31:20;100070.53;;;9.29;69.83
51313;BME280;37397;53.226;10.400;2024-03-23T07:33:48;100058.44;;;9.19;69.71
51313;BME280;37397;53.226;10.400;2024-03-23T07:36:14;100072.09;;;9.30;69.71
51313;BME280;37397;53.226;10.400;2024-03-23T07:38:41;100082.22;;;9.31;69.71
51313;BME280;37397;53.226;10.400;2024-03-23T07:41:09;100073.88;;;9.27;69.61
51313;BME280;37397;53.226;10.400;2024-03-23T07:43:38;100077.31;;;9.31;69.77
51313;BME280;37397;53.226;10.400;2024-03-23T07:46:04;100066.31;;;9.24;69.76
51313;BME280;37397;53.226;10.400;2024-03-23T07:48:30;100076.03;;;9.33;69.69
51313;BME280;37397;53.226;10.400;2024-03-23T07:51:00;100082.50;;;9.33;69.60
51313;BME280;37397;53.226;10.400;2024-03-23T07:53:26;100072.69;;;9.34;69.68
51313;BME280;37397;53.226;10.400;2024-03-23T07:55:57;100072.69;;;9.34;69.44
51313;BME280;37397;53.226;10.400;2024-03-23T07:58:24;100062.09;;;9.35;69.42
51313;BME280;37397;53.226;10.400;2024-03-23T08:00:49;100074.25;;;9.35;69.59
51313;BME280;37397;53.226;10.400;2024-03-23T08:03:15;100060.03;;;9.35;69.38
51313;BME280;37397;53.226;10.400;2024-03-23T08:05:41;100066.50;;;9.36;69.43
51313;BME280;37397;53.226;10.400;2024-03-23T08:08:07;100063.66;;;9.36;69.27
51313;BME280;37397;53.226;10.400;2024-03-23T08:10:33;100058.75;;;9.36;68.96
51313;BME280;37397;53.226;10.400;2024-03-23T08:12:58;100061.31;;;9.34;69.29
51313;BME280;37397;53.226;10.400;2024-03-23T08:15:24;100053.84;;;9.37;69.23
51313;BME280;37397;53.226;10.400;2024-03-23T08:17:50;100040.78;;;9.30;69.16
51313;BME280;37397;53.226;10.400;2024-03-23T08:20:16;100060.03;;;9.35;69.06
51313;BME280;37397;53.226;10.400;2024-03-23T08:22:41;100053.06;;;9.36;69.13
51313;BME280;37397;53.226;10.400;2024-03-23T08:25:07;100061.59;;;9.36;69.08
51313;BME280;37397;53.226;10.400;2024-03-23T08:27:33;100049.59;;;9.32;69.08
51313;BME280;37397;53.226;10.400;2024-03-23T08:29:58;100049.59;;;9.32;68.89
51313;BME280;37397;53.226;10.400;2024-03-23T08:32:24;100049.72;;;9.38;69.35
51313;BME280;37397;53.226;10.400;2024-03-23T08:34:50;100045.59;;;9.39;69.15
51313;BME280;37397;53.226;10.400;2024-03-23T08:37:16;100050.50;;;9.38;68.97
51313;BME280;37397;53.226;10.400;2024-03-23T08:39:43;100035.56;;;9.28;68.99
51313;BME280;37397;53.226;10.400;2024-03-23T08:42:09;100044.03;;;9.38;68.84
51313;BME280;37397;53.226;10.400;2024-03-23T08:44:36;100037.84;;;9.39;68.65
51313;BME280;37397;53.226;10.400;2024-03-23T08:47:02;100039.09;;;9.38;68.38
51313;BME280;37397;53.226;10.400;2024-03-23T08:49:27;100046.09;;;9.37;68.34
51313;BME280;37397;53.226;10.400;2024-03-23T08:51:53;100043.53;;;9.39;68.25
51313;BME280;37397;53.226;10.400;2024-03-23T08:54:19;100037.84;;;9.39;68.44
51313;BME280;37397;53.226;10.400;2024-03-23T08:56:46;100040.97;;;9.41;68.37
51313;BME280;37397;53.226;10.400;2024-03-23T08:59:11;100044.63;;;9.42;68.31
51313;BME280;37397;53.226;10.400;2024-03-23T09:01:37;100033.22;;;9.42;68.33
51313;BME280;37397;53.226;10.400;2024-03-23T09:04:03;100039.97;;;9.44;68.33
51313;BME280;37397;53.226;10.400;2024-03-23T09:06:29;100029.88;;;9.43;68.28
51313;BME280;37397;53.226;10.400;2024-03-23T09:08:55;100040.47;;;9.43;68.54
51313;BME280;37397;53.226;10.400;2024-03-23T09:11:21;100031.16;;;9.42;68.15
51313;BME280;37397;53.226;10.400;2024-03-23T09:13:46;100046.78;;;9.47;68.18
51313;BME280;37397;53.226;10.400;2024-03-23T09:16:12;100044.22;;;9.49;68.08
51313;BME280;37397;53.226;10.400;2024-03-23T09:18:38;100042.94;;;9.50;67.91
51313;BME280;37397;53.226;10.400;2024-03-23T09:21:11;100031.44;;;9.44;67.67
51313;BME280;37397;53.226;10.400;2024-03-23T09:23:37;100048.16;;;9.52;67.60
51313;BME280;37397;53.226;10.400;2024-03-23T09:26:03;100048.44;;;9.54;67.46
51313;BME280;37397;53.226;10.400;2024-03-23T09:28:29;100041.16;;;9.53;67.30
51313;BME280;37397;53.226;10.400;2024-03-23T09:31:02;100051.28;;;9.54;66.90
51313;BME280;37397;53.226;10.400;2024-03-23T09:33:28;100055.19;;;9.56;66.73
51313;BME280;37397;53.226;10.400;2024-03-23T09:35:55;100046.94;;;9.58;66.72
51313;BME280;37397;53.226;10.400;2024-03-23T09:38:22;100037.91;;;9.60;66.45
51313;BME280;37397;53.226;10.400;2024-03-23T09:40:53;100038.19;;;9.62;66.29
51313;BME280;37397;53.226;10.400;2024-03-23T09:43:19;100037.69;;;9.63;66.51
51313;BME280;37397;53.226;10.400;2024-03-23T09:45:45;100020.81;;;9.60;66.45
51313;BME280;37397;53.226;10.400;2024-03-23T09:48:12;100033.38;;;9.68;66.12
51313;BME280;37397;53.226;10.400;2024-03-23T09:50:42;100027.47;;;9.72;66.15
51313;BME280;37397;53.226;10.400;2024-03-23T09:53:10;100031.41;;;9.74;66.20
51313;BME280;37397;53.226;10.400;2024-03-23T09:55:40;100018.22;;;9.77;66.05
51313;BME280;37397;53.226;10.400;2024-03-23T09:58:06;100022.13;;;9.79;66.19
51313;BME280;37397;53.226;10.400;2024-03-23T10:00:33;100026.84;;;9.82;66.21
51313;BME280;37397;53.226;10.400;2024-03-23T10:03:00;100018.59;;;9.84;66.12
51313;BME280;37397;53.226;10.400;2024-03-23T10:05:29;100016.00;;;9.86;66.38
51313;BME280;37397;53.226;10.400;2024-03-23T10:07:57;100005.59;;;9.83;66.33
51313;BME280;37397;53.226;10.400;2024-03-23T10:10:25;100014.03;;;9.93;65.98
51313;BME280;37397;53.226;10.400;2024-03-23T10:12:50;100021.31;;;9.94;65.76
51313;BME280;37397;53.226;10.400;2024-03-23T10:15:21;100019.22;;;9.94;65.19
51313;BME280;37397;53.226;10.400;2024-03-23T10:17:48;100020.31;;;9.97;65.31
51313;BME280;37397;53.226;10.400;2024-03-23T10:20:19;100022.69;;;9.98;64.99
51313;BME280;37397;53.226;10.400;2024-03-23T10:22:45;100014.13;;;9.98;65.22
51313;BME280;37397;53.226;10.400;2024-03-23T10:25:11;100008.41;;;9.98;65.15
51313;BME280;37397;53.226;10.400;2024-03-23T10:27:37;100005.34;;;10.02;65.04
51313;BME280;37397;53.226;10.400;2024-03-23T10:30:12;100002.00;;;10.03;65.10
51313;BME280;37397;53.226;10.400;2024-03-23T10:32:40;100012.41;;;10.07;65.06
51313;BME280;37397;53.226;10.400;2024-03-23T10:35:19;100018.91;;;10.07;64.48
51313;BME280;37397;53.226;10.400;2024-03-23T10:37:45;100012.91;;;10.05;64.81
51313;BME280;37397;53.226;10.400;2024-03-23T10:40:17;100008.56;;;10.10;64.27
51313;BME280;37397;53.226;10.400;2024-03-23T10:42:44;99990.66;;;10.09;63.59
51313;BME280;37397;53.226;10.400;2024-03-23T10:45:10;99993.50;;;10.09;63.75
51313;BME280;37397;53.226;10.400;2024-03-23T10:47:36;99983.97;;;10.12;63.89
51313;BME280;37397;53.226;10.400;2024-03-23T10:50:03;99992.53;;;10.12;63.78
51313;BME280;37397;53.226;10.400;2024-03-23T10:52:32;99988.41;;;10.13;63.51
51313;BME280;37397;53.226;10.400;2024-03-23T10:54:58;99985.53;;;10.13;63.60
51313;BME280;37397;53.226;10.400;2024-03-23T10:57:50;99982.69;;;10.13;63.12
51313;BME280;37397;53.226;10.400;2024-03-23T11:00:17;99982.97;;;10.15;63.35
51313;BME280;37397;53.226;10.400;2024-03-23T11:02:43;99980.41;;;10.17;63.18
51313;BME280;37397;53.226;10.400;2024-03-23T11:05:28;99977.00;;;10.13;62.06
51313;BME280;37397;53.226;10.400;2024-03-23T11:07:54;99978.06;;;10.16;62.99
51313;BME280;37397;53.226;10.400;2024-03-23T11:10:30;99967.16;;;10.14;62.19
51313;BME280;37397;53.226;10.400;2024-03-23T11:12:57;99971.06;;;10.17;62.44
51313;BME280;37397;53.226;10.400;2024-03-23T11:15:23;99967.72;;;10.18;62.57
51313;BME280;37397;53.226;10.400;2024-03-23T11:18:07;99966.66;;;10.16;62.41
51313;BME280;37397;53.226;10.400;2024-03-23T11:20:35;99960.97;;;10.16;62.44
51313;BME280;37397;53.226;10.400;2024-03-23T11:23:01;99970.56;;;10.18;62.33
51313;BME280;37397;53.226;10.400;2024-03-23T11:25:28;99967.72;;;10.18;61.85
51313;BME280;37397;53.226;10.400;2024-03-23T11:28:10;99956.31;;;10.18;61.27
51313;BME280;37397;53.226;10.400;2024-03-23T11:30:36;99956.31;;;10.18;61.54
51313;BME280;37397;53.226;10.400;2024-03-23T11:33:04;99962.78;;;10.19;61.54
51313;BME280;37397;53.226;10.400;2024-03-23T11:35:34;99955.53;;;10.18;61.20
51313;BME280;37397;53.226;10.400;2024-03-23T11:38:11;99965.16;;;10.20;61.32
51313;BME280;37397;53.226;10.400;2024-03-23T11:40:47;99963.59;;;10.19;60.90
51313;BME280;37397;53.226;10.400;2024-03-23T11:43:18;99959.44;;;10.20;61.21
51313;BME280;37397;53.226;10.400;2024-03-23T11:45:46;99970.06;;;10.20;61.56
51313;BME280;37397;53.226;10.400;2024-03-23T11:48:19;99964.66;;;10.22;61.55
51313;BME280;37397;53.226;10.400;2024-03-23T11:50:49;99978.13;;;10.21;61.33
51313;BME280;37397;53.226;10.400;2024-03-23T11:53:20;99976.56;;;10.20;61.13
51313;BME280;37397;53.226;10.400;2024-03-23T11:55:47;99976.84;;;10.22;61.37
51313;BME280;37397;53.226;10.400;2024-03-23T11:58:13;99974.00;;;10.22;61.79
51313;BME280;37397;53.226;10.400;2024-03-23T12:00:40;99972.69;;;10.23;61.97
51313;BME280;37397;53.226;10.400;2024-03-23T12:03:06;99971.44;;;10.25;62.21
51313;BME280;37397;53.226;10.400;2024-03-23T12:05:32;99966.50;;;10.25;62.24
51313;BME280;37397;53.226;10.400;2024-03-23T12:08:18;99962.59;;;10.22;62.24
51313;BME280;37397;53.226;10.400;2024-03-23T12:13:14;99953.53;;;10.24;62.38
51313;BME280;37397;53.226;10.400;2024-03-23T12:15:39;99961.59;;;10.26;62.40
51313;BME280;37397;53.226;10.400;2024-03-23T12:18:09;99961.59;;;10.26;62.22
51313;BME280;37397;53.226;10.400;2024-03-23T12:20:36;99950.47;;;10.28;62.49
51313;BME280;37397;53.226;10.400;2024-03-23T12:23:12;99944.50;;;10.26;62.18
51313;BME280;37397;53.226;10.400;2024-03-23T12:25:41;99947.34;;;10.26;62.63
51313;BME280;37397;53.226;10.400;2024-03-23T12:28:07;99947.63;;;10.28;62.51
51313;BME280;37397;53.226;10.400;2024-03-23T12:30:39;99950.97;;;10.26;62.41
51313;BME280;37397;53.226;10.400;2024-03-23T12:33:05;99945.03;;;10.30;62.49
51313;BME280;37397;53.226;10.400;2024-03-23T12:35:31;99936.47;;;10.30;62.72
51313;BME280;37397;53.226;10.400;2024-03-23T12:37:57;99943.75;;;10.31;63.00
51313;BME280;37397;53.226;10.400;2024-03-23T12:40:23;99938.38;;;10.33;62.90
51313;BME280;37397;53.226;10.400;2024-03-23T12:42:48;99938.38;;;10.33;62.97
51313;BME280;37397;53.226;10.400;2024-03-23T12:45:14;99924.88;;;10.33;63.08
51313;BME280;37397;53.226;10.400;2024-03-23T12:47:40;99924.09;;;10.33;63.09
51313;BME280;37397;53.226;10.400;2024-03-23T12:50:06;99914.56;;;10.36;63.11
51313;BME280;37397;53.226;10.400;2024-03-23T12:52:32;99923.38;;;10.38;63.18
51313;BME280;37397;53.226;10.400;2024-03-23T12:54:58;99916.13;;;10.37;63.02
51313;BME280;37397;53.226;10.400;2024-03-23T12:57:25;99923.69;;;10.40;62.98
51313;BME280;37397;53.226;10.400;2024-03-23T12:59:51;99922.66;;;10.43;62.89
51313;BME280;37397;53.226;10.400;2024-03-23T13:02:21;99918.28;;;10.48;62.87
51313;BME280;37397;53.226;10.400;2024-03-23T13:04:51;99926.06;;;10.47;62.73
51313;BME280;37397;53.226;10.400;2024-03-23T13:07:18;99923.50;;;10.49;62.53
51313;BME280;37397;53.226;10.400;2024-03-23T13:09:44;99926.66;;;10.51;62.71
51313;BME280;37397;53.226;10.400;2024-03-23T13:12:10;99912.09;;;10.49;62.69
51313;BME280;37397;53.226;10.400;2024-03-23T13:14:38;99905.88;;;10.51;62.41
51313;BME280;37397;53.226;10.400;2024-03-23T13:17:04;99929.53;;;10.57;61.92
51313;BME280;37397;53.226;10.400;2024-03-23T13:19:30;99960.66;;;10.55;61.80
51313;BME280;37397;53.226;10.400;2024-03-23T13:22:00;99995.94;;;10.57;61.69
51313;BME280;37397;53.226;10.400;2024-03-23T13:24:27;99999.78;;;10.54;62.04
51313;BME280;37397;53.226;10.400;2024-03-23T13:26:54;100025.19;;;10.52;61.98
51313;BME280;37397;53.226;10.400;2024-03-23T13:29:20;100024.31;;;10.46;61.93
51313;BME280;37397;53.226;10.400;2024-03-23T13:31:47;100003.59;;;10.46;62.25
51313;BME280;37397;53.226;10.400;2024-03-23T13:34:16;100013.66;;;10.41;62.09
51313;BME280;37397;53.226;10.400;2024-03-23T13:36:42;100021.66;;;10.37;62.07
51313;BME280;37397;53.226;10.400;2024-03-23T13:39:09;100009.84;;;10.29;62.08
51313;BME280;37397;53.226;10.400;2024-03-23T13:41:39;100000.72;;;10.25;61.81